Maidenbower, United Kingdom
Current Conditions -  °F | °C
As of 2:20 PM on Thursday 30 Oct 2014 (Local Time) from EGKK Reporting Station
Few Clouds Few Clouds  
Wind Chill: 64°   Ceiling: Unl
Heat Index: 64°   Visibility: 6mi
Dew Point: 57°   Wind: 6mph
Humidity: 77%   Direction: 190°S
Pressure: 30.06"   Gusts: NA
Location:  51.11°N, 0.15°W
Report Text: EGKK 301420Z 19005KT 150V230 9999 FEW015 18/14 Q1018
Loading
Personal Weather Stations






























Interactive Weather Map
Tropical Storm Tracking
New forecast layout! Learn more

10-Day Weather Forecast

Advertisements
Track Severe Weather on mobile